International Virtual Aviation Organisation

Russian Federation and Kazakhstan MCD

 

Карточка аэропорта UWKD

Внимание!
Информация на этой странице в стадии наполнения.
Если вы не увидели какой-то информации, или заметили неточность - пожалуйста сообщите нам!
Спасибо!
Команда RU-STAFF
Название аэропортаКазань
Название аэропорта (англ.)Kazan
Превышение413 ft. (125.9 m.)
Координаты55°36.498', 49°16.668'
Высота перехода900m
Эшелон переходаQFE>=749mm:FL050; QFE<749=>722:FL060; QFE<722:FL070
Коды ответчика6732-6737
Зона ОрВДСамара РПИ (UWWW)
Данные METARUWKD 180800Z 20004G09MPS 9999 DRSN OVC014 M05/M07 Q1004 R11/810040 TEMPO 20009G15MPS 1500 SN BLSN BKN007 RMK QFE743/0990
Проноз погоды (TAF)UWKD 180456Z 1806/1906 19007G12MPS 5000 -SN BLSN OVC011 TXM01/1812Z TNM06/1806Z TEMPO 1806/1812 20009G15MPS 1000 SN BLSN OVC005 TEMPO 1812/1818 21008G15MPS 2000 SNRA OVC007 TEMPO 1818/1906 18008G15MPS 2000 SN BLSN OVC005
NOTAMshow/hide NOTAM
AWOS   TABLE

Информация о ВПП

ВПП Длина ВПП (м.) Покрытие Курс ВПП Частота ILS
113750Цементобетон112110.5
293750Цементобетон292111.7

Диспетчерские позиции

Позывной Наименование органа УВД Частота
UWKD_R_APPКазань-Круг119.400
UWKD_TWRКазань-Старт120.300
UWKD_GNDКазань-Руление121.7



Спутниковое изображение